sensor_id;sensor_type;location;lat;lon;timestamp;temperature;humidity
14359;DHT22;7263;49.418;11.064;2023-12-14T00:07:50;6.80;99.90
14359;DHT22;7263;49.418;11.064;2023-12-14T00:12:48;6.80;99.90
14359;DHT22;7263;49.418;11.064;2023-12-14T00:44:57;6.80;99.90
14359;DHT22;7263;49.418;11.064;2023-12-14T00:49:56;6.80;99.90
14359;DHT22;7263;49.418;11.064;2023-12-14T01:24:32;6.50;99.90
14359;DHT22;7263;49.418;11.064;2023-12-14T01:37:14;6.50;99.90
14359;DHT22;7263;49.418;11.064;2023-12-14T01:44:36;6.50;99.90
14359;DHT22;7263;49.418;11.064;2023-12-14T01:47:06;6.80;99.90
14359;DHT22;7263;49.418;11.064;2023-12-14T01:49:35;6.80;99.90
14359;DHT22;7263;49.418;11.064;2023-12-14T01:52:01;6.30;99.90
14359;DHT22;7263;49.418;11.064;2023-12-14T02:04:45;6.40;99.90
14359;DHT22;7263;49.418;11.064;2023-12-14T02:19:52;6.40;99.90
14359;DHT22;7263;49.418;11.064;2023-12-14T02:22:22;6.20;99.90
14359;DHT22;7263;49.418;11.064;2023-12-14T02:29:54;6.40;99.90
14359;DHT22;7263;49.418;11.064;2023-12-14T02:39:44;6.30;99.90
14359;DHT22;7263;49.418;11.064;2023-12-14T02:47:14;6.30;99.90
14359;DHT22;7263;49.418;11.064;2023-12-14T02:49:44;6.40;99.90
14359;DHT22;7263;49.418;11.064;2023-12-14T02:52:10;6.40;99.90
14359;DHT22;7263;49.418;11.064;2023-12-14T02:59:48;6.30;99.90
14359;DHT22;7263;49.418;11.064;2023-12-14T03:02:25;6.30;99.90
14359;DHT22;7263;49.418;11.064;2023-12-14T03:07:18;6.10;99.90
14359;DHT22;7263;49.418;11.064;2023-12-14T03:17:09;6.40;99.90
14359;DHT22;7263;49.418;11.064;2023-12-14T03:22:26;6.30;99.90
14359;DHT22;7263;49.418;11.064;2023-12-14T03:27:19;6.10;99.90
14359;DHT22;7263;49.418;11.064;2023-12-14T03:29:49;6.20;99.90
14359;DHT22;7263;49.418;11.064;2023-12-14T03:37:37;6.20;99.90
14359;DHT22;7263;49.418;11.064;2023-12-14T03:40:04;6.10;99.90
14359;DHT22;7263;49.418;11.064;2023-12-14T03:42:31;6.20;99.90
14359;DHT22;7263;49.418;11.064;2023-12-14T03:44:58;6.40;99.90
14359;DHT22;7263;49.418;11.064;2023-12-14T03:50:16;6.40;99.90
14359;DHT22;7263;49.418;11.064;2023-12-14T03:52:51;6.30;99.90
14359;DHT22;7263;49.418;11.064;2023-12-14T03:55:23;6.40;99.90
14359;DHT22;7263;49.418;11.064;2023-12-14T03:57:55;6.20;99.90
14359;DHT22;7263;49.418;11.064;2023-12-14T04:05:18;6.10;99.90
14359;DHT22;7263;49.418;11.064;2023-12-14T04:10:19;6.30;99.90
14359;DHT22;7263;49.418;11.064;2023-12-14T04:15:12;6.10;99.90
14359;DHT22;7263;49.418;11.064;2023-12-14T04:20:12;6.40;99.90
14359;DHT22;7263;49.418;11.064;2023-12-14T04:30:11;6.20;99.90
14359;DHT22;7263;49.418;11.064;2023-12-14T04:32:43;6.10;99.90
14359;DHT22;7263;49.418;11.064;2023-12-14T04:35:13;6.40;99.90
14359;DHT22;7263;49.418;11.064;2023-12-14T04:37:43;6.10;99.90
14359;DHT22;7263;49.418;11.064;2023-12-14T04:42:37;6.20;99.90
14359;DHT22;7263;49.418;11.064;2023-12-14T04:59:48;6.10;99.90
14359;DHT22;7263;49.418;11.064;2023-12-14T05:39:54;6.30;99.90
14359;DHT22;7263;49.418;11.064;2023-12-14T05:54:43;6.20;99.90
14359;DHT22;7263;49.418;11.064;2023-12-14T06:12:09;6.00;99.90
14359;DHT22;7263;49.418;11.064;2023-12-14T06:22:25;6.10;99.90
14359;DHT22;7263;49.418;11.064;2023-12-14T06:32:25;6.00;99.90
14359;DHT22;7263;49.418;11.064;2023-12-14T06:34:58;5.90;99.90
14359;DHT22;7263;49.418;11.064;2023-12-14T06:37:27;5.90;99.90
14359;DHT22;7263;49.418;11.064;2023-12-14T06:39:57;5.80;99.90
14359;DHT22;7263;49.418;11.064;2023-12-14T06:42:34;5.80;99.90
14359;DHT22;7263;49.418;11.064;2023-12-14T06:45:02;5.80;99.90
14359;DHT22;7263;49.418;11.064;2023-12-14T06:47:29;5.80;99.90
14359;DHT22;7263;49.418;11.064;2023-12-14T06:49:58;5.80;99.90
14359;DHT22;7263;49.418;11.064;2023-12-14T06:52:30;5.80;99.90
14359;DHT22;7263;49.418;11.064;2023-12-14T06:54:58;5.80;99.90
14359;DHT22;7263;49.418;11.064;2023-12-14T06:57:25;5.80;99.90
14359;DHT22;7263;49.418;11.064;2023-12-14T06:59:56;5.80;99.90
14359;DHT22;7263;49.418;11.064;2023-12-14T07:02:33;5.80;99.90
14359;DHT22;7263;49.418;11.064;2023-12-14T07:05:00;5.80;99.90
14359;DHT22;7263;49.418;11.064;2023-12-14T07:07:29;5.80;99.90
14359;DHT22;7263;49.418;11.064;2023-12-14T07:09:56;5.80;99.90
14359;DHT22;7263;49.418;11.064;2023-12-14T07:12:25;5.90;99.90
14359;DHT22;7263;49.418;11.064;2023-12-14T07:15:04;5.90;99.90
14359;DHT22;7263;49.418;11.064;2023-12-14T07:17:31;5.90;99.90
14359;DHT22;7263;49.418;11.064;2023-12-14T07:20:01;5.90;99.90
14359;DHT22;7263;49.418;11.064;2023-12-14T07:22:28;5.90;99.90
14359;DHT22;7263;49.418;11.064;2023-12-14T07:25:02;6.00;99.90
14359;DHT22;7263;49.418;11.064;2023-12-14T07:27:29;6.00;99.90
14359;DHT22;7263;49.418;11.064;2023-12-14T07:30:02;6.00;99.90
14359;DHT22;7263;49.418;11.064;2023-12-14T07:32:28;6.00;99.90
14359;DHT22;7263;49.418;11.064;2023-12-14T07:35:03;6.00;99.90
14359;DHT22;7263;49.418;11.064;2023-12-14T07:37:33;6.00;99.90
14359;DHT22;7263;49.418;11.064;2023-12-14T07:40:08;6.00;99.90
14359;DHT22;7263;49.418;11.064;2023-12-14T07:42:38;6.10;99.90
14359;DHT22;7263;49.418;11.064;2023-12-14T07:45:09;6.00;99.90
14359;DHT22;7263;49.418;11.064;2023-12-14T07:47:39;6.00;99.90
14359;DHT22;7263;49.418;11.064;2023-12-14T07:50:13;6.00;99.90
14359;DHT22;7263;49.418;11.064;2023-12-14T07:52:45;6.00;99.90
14359;DHT22;7263;49.418;11.064;2023-12-14T07:55:12;6.00;99.90
14359;DHT22;7263;49.418;11.064;2023-12-14T07:57:43;6.00;99.90
14359;DHT22;7263;49.418;11.064;2023-12-14T08:00:16;6.00;99.90
14359;DHT22;7263;49.418;11.064;2023-12-14T08:02:50;5.90;99.90
14359;DHT22;7263;49.418;11.064;2023-12-14T08:05:16;5.90;99.90
14359;DHT22;7263;49.418;11.064;2023-12-14T08:07:45;5.90;99.90
14359;DHT22;7263;49.418;11.064;2023-12-14T08:10:13;5.90;99.90
14359;DHT22;7263;49.418;11.064;2023-12-14T08:12:42;5.90;99.90
14359;DHT22;7263;49.418;11.064;2023-12-14T08:15:17;6.00;99.90
14359;DHT22;7263;49.418;11.064;2023-12-14T08:18:03;5.90;99.90
14359;DHT22;7263;49.418;11.064;2023-12-14T08:20:30;5.90;99.90
14359;DHT22;7263;49.418;11.064;2023-12-14T08:23:05;6.00;99.90
14359;DHT22;7263;49.418;11.064;2023-12-14T08:25:32;6.00;99.90
14359;DHT22;7263;49.418;11.064;2023-12-14T08:28:02;6.20;99.90
14359;DHT22;7263;49.418;11.064;2023-12-14T08:30:30;6.30;99.90
14359;DHT22;7263;49.418;11.064;2023-12-14T08:32:57;6.50;99.90
14359;DHT22;7263;49.418;11.064;2023-12-14T08:35:33;6.50;99.90
14359;DHT22;7263;49.418;11.064;2023-12-14T08:38:02;6.60;99.90
14359;DHT22;7263;49.418;11.064;2023-12-14T08:40:35;6.70;99.90
14359;DHT22;7263;49.418;11.064;2023-12-14T08:43:05;6.90;99.90
14359;DHT22;7263;49.418;11.064;2023-12-14T08:45:38;7.00;99.90
14359;DHT22;7263;49.418;11.064;2023-12-14T08:48:05;6.90;99.90
14359;DHT22;7263;49.418;11.064;2023-12-14T08:50:34;6.90;99.90
14359;DHT22;7263;49.418;11.064;2023-12-14T08:53:06;6.90;99.90
14359;DHT22;7263;49.418;11.064;2023-12-14T08:55:41;6.90;99.90
14359;DHT22;7263;49.418;11.064;2023-12-14T08:58:18;6.90;99.90
14359;DHT22;7263;49.418;11.064;2023-12-14T09:00:49;6.90;99.90
14359;DHT22;7263;49.418;11.064;2023-12-14T09:03:18;6.90;99.90
14359;DHT22;7263;49.418;11.064;2023-12-14T09:05:50;7.00;99.90
14359;DHT22;7263;49.418;11.064;2023-12-14T09:08:24;7.10;99.90
14359;DHT22;7263;49.418;11.064;2023-12-14T09:10:53;7.10;99.90
14359;DHT22;7263;49.418;11.064;2023-12-14T09:13:23;7.10;99.90
14359;DHT22;7263;49.418;11.064;2023-12-14T09:15:51;7.10;99.90
14359;DHT22;7263;49.418;11.064;2023-12-14T09:18:22;7.10;99.90
14359;DHT22;7263;49.418;11.064;2023-12-14T09:20:49;7.00;99.90
14359;DHT22;7263;49.418;11.064;2023-12-14T09:23:19;7.00;99.90
14359;DHT22;7263;49.418;11.064;2023-12-14T09:25:49;7.00;99.90
14359;DHT22;7263;49.418;11.064;2023-12-14T09:28:16;6.90;99.90
14359;DHT22;7263;49.418;11.064;2023-12-14T09:30:46;6.90;99.90
14359;DHT22;7263;49.418;11.064;2023-12-14T09:33:17;7.00;99.90
14359;DHT22;7263;49.418;11.064;2023-12-14T09:35:45;7.00;99.90
14359;DHT22;7263;49.418;11.064;2023-12-14T09:38:14;7.00;99.90
14359;DHT22;7263;49.418;11.064;2023-12-14T09:40:43;7.00;99.90
14359;DHT22;7263;49.418;11.064;2023-12-14T09:43:13;7.00;99.90
14359;DHT22;7263;49.418;11.064;2023-12-14T09:45:43;7.00;99.90
14359;DHT22;7263;49.418;11.064;2023-12-14T09:48:11;7.00;99.90
14359;DHT22;7263;49.418;11.064;2023-12-14T09:50:43;7.20;99.90
14359;DHT22;7263;49.418;11.064;2023-12-14T09:53:14;7.10;99.90
14359;DHT22;7263;49.418;11.064;2023-12-14T09:55:43;7.10;99.90
14359;DHT22;7263;49.418;11.064;2023-12-14T09:58:12;7.20;99.90
14359;DHT22;7263;49.418;11.064;2023-12-14T10:00:53;7.30;99.90
14359;DHT22;7263;49.418;11.064;2023-12-14T10:03:29;7.50;99.90
14359;DHT22;7263;49.418;11.064;2023-12-14T10:06:11;7.70;99.90
14359;DHT22;7263;49.418;11.064;2023-12-14T10:08:38;7.80;99.90
14359;DHT22;7263;49.418;11.064;2023-12-14T10:11:22;8.00;99.90
14359;DHT22;7263;49.418;11.064;2023-12-14T10:13:54;8.10;99.90
14359;DHT22;7263;49.418;11.064;2023-12-14T10:16:31;8.10;99.90
14359;DHT22;7263;49.418;11.064;2023-12-14T10:19:00;8.20;99.90
14359;DHT22;7263;49.418;11.064;2023-12-14T10:21:32;8.10;99.90
14359;DHT22;7263;49.418;11.064;2023-12-14T10:24:01;8.10;99.90
14359;DHT22;7263;49.418;11.064;2023-12-14T10:26:34;8.10;99.90
14359;DHT22;7263;49.418;11.064;2023-12-14T10:29:06;8.10;99.90
14359;DHT22;7263;49.418;11.064;2023-12-14T10:31:36;8.10;99.90
14359;DHT22;7263;49.418;11.064;2023-12-14T10:34:03;8.30;99.90
14359;DHT22;7263;49.418;11.064;2023-12-14T10:36:32;8.20;99.90
14359;DHT22;7263;49.418;11.064;2023-12-14T10:39:04;8.20;99.90
14359;DHT22;7263;49.418;11.064;2023-12-14T10:41:37;8.10;99.90
14359;DHT22;7263;49.418;11.064;2023-12-14T10:44:12;8.20;99.90
14359;DHT22;7263;49.418;11.064;2023-12-14T10:46:48;8.20;99.90
14359;DHT22;7263;49.418;11.064;2023-12-14T10:49:29;8.40;99.90
14359;DHT22;7263;49.418;11.064;2023-12-14T10:51:58;8.50;99.90
14359;DHT22;7263;49.418;11.064;2023-12-14T10:54:28;8.50;99.90
14359;DHT22;7263;49.418;11.064;2023-12-14T10:57:00;8.50;99.90
14359;DHT22;7263;49.418;11.064;2023-12-14T10:59:33;8.60;99.90
14359;DHT22;7263;49.418;11.064;2023-12-14T11:02:06;8.60;99.90
14359;DHT22;7263;49.418;11.064;2023-12-14T11:04:53;8.60;99.90
14359;DHT22;7263;49.418;11.064;2023-12-14T11:07:49;8.50;99.90
14359;DHT22;7263;49.418;11.064;2023-12-14T11:10:21;8.40;99.90
14359;DHT22;7263;49.418;11.064;2023-12-14T11:12:56;8.40;99.90
14359;DHT22;7263;49.418;11.064;2023-12-14T11:15:26;8.40;99.90
14359;DHT22;7263;49.418;11.064;2023-12-14T11:18:20;8.40;99.90
14359;DHT22;7263;49.418;11.064;2023-12-14T11:21:03;8.60;99.90
14359;DHT22;7263;49.418;11.064;2023-12-14T11:23:36;8.50;99.90
14359;DHT22;7263;49.418;11.064;2023-12-14T11:26:10;8.60;99.90
14359;DHT22;7263;49.418;11.064;2023-12-14T11:28:41;8.60;99.90
14359;DHT22;7263;49.418;11.064;2023-12-14T11:31:10;8.60;99.90
14359;DHT22;7263;49.418;11.064;2023-12-14T11:33:40;8.60;99.90
14359;DHT22;7263;49.418;11.064;2023-12-14T11:36:13;8.60;99.90
14359;DHT22;7263;49.418;11.064;2023-12-14T11:38:49;8.70;99.90
14359;DHT22;7263;49.418;11.064;2023-12-14T11:41:20;8.60;99.90
14359;DHT22;7263;49.418;11.064;2023-12-14T11:43:50;8.60;99.90
14359;DHT22;7263;49.418;11.064;2023-12-14T11:46:19;12.70;99.90
14359;DHT22;7263;49.418;11.064;2023-12-14T11:48:46;8.60;99.90
14359;DHT22;7263;49.418;11.064;2023-12-14T11:51:14;8.70;99.90
14359;DHT22;7263;49.418;11.064;2023-12-14T11:53:52;8.60;99.90
14359;DHT22;7263;49.418;11.064;2023-12-14T11:56:19;8.70;99.90
14359;DHT22;7263;49.418;11.064;2023-12-14T11:58:48;8.70;99.90
14359;DHT22;7263;49.418;11.064;2023-12-14T12:01:22;8.70;99.90
14359;DHT22;7263;49.418;11.064;2023-12-14T12:04:08;8.60;99.90
14359;DHT22;7263;49.418;11.064;2023-12-14T12:06:35;8.60;99.90
14359;DHT22;7263;49.418;11.064;2023-12-14T12:09:07;8.60;99.90
14359;DHT22;7263;49.418;11.064;2023-12-14T12:11:45;8.60;99.90
14359;DHT22;7263;49.418;11.064;2023-12-14T12:14:19;8.80;99.90
14359;DHT22;7263;49.418;11.064;2023-12-14T12:16:53;8.60;99.90
14359;DHT22;7263;49.418;11.064;2023-12-14T12:19:20;8.70;99.90
14359;DHT22;7263;49.418;11.064;2023-12-14T12:21:47;9.00;99.90
14359;DHT22;7263;49.418;11.064;2023-12-14T12:24:29;8.70;99.90
14359;DHT22;7263;49.418;11.064;2023-12-14T12:26:59;8.80;99.90
14359;DHT22;7263;49.418;11.064;2023-12-14T12:29:33;8.90;99.90
14359;DHT22;7263;49.418;11.064;2023-12-14T12:31:59;8.80;99.90
14359;DHT22;7263;49.418;11.064;2023-12-14T12:34:40;8.90;99.90
14359;DHT22;7263;49.418;11.064;2023-12-14T12:37:07;8.90;99.90
14359;DHT22;7263;49.418;11.064;2023-12-14T12:39:39;8.90;99.90
14359;DHT22;7263;49.418;11.064;2023-12-14T12:42:16;8.90;99.90
14359;DHT22;7263;49.418;11.064;2023-12-14T12:44:47;8.90;99.90
14359;DHT22;7263;49.418;11.064;2023-12-14T12:47:19;8.80;99.90
14359;DHT22;7263;49.418;11.064;2023-12-14T12:49:54;8.70;99.90
14359;DHT22;7263;49.418;11.064;2023-12-14T12:52:21;8.70;99.90
14359;DHT22;7263;49.418;11.064;2023-12-14T12:54:57;8.60;99.90
14359;DHT22;7263;49.418;11.064;2023-12-14T12:57:30;8.50;99.90
14359;DHT22;7263;49.418;11.064;2023-12-14T13:00:01;8.50;99.90
14359;DHT22;7263;49.418;11.064;2023-12-14T13:02:32;8.40;99.90
14359;DHT22;7263;49.418;11.064;2023-12-14T13:05:07;8.30;99.90
14359;DHT22;7263;49.418;11.064;2023-12-14T13:07:44;8.20;99.90
14359;DHT22;7263;49.418;11.064;2023-12-14T13:10:18;8.20;99.90
14359;DHT22;7263;49.418;11.064;2023-12-14T13:12:50;8.20;99.90
14359;DHT22;7263;49.418;11.064;2023-12-14T13:15:23;8.20;99.90
14359;DHT22;7263;49.418;11.064;2023-12-14T13:17:50;8.20;99.90
14359;DHT22;7263;49.418;11.064;2023-12-14T13:20:23;8.10;99.90
14359;DHT22;7263;49.418;11.064;2023-12-14T13:22:52;8.10;99.90
14359;DHT22;7263;49.418;11.064;2023-12-14T13:25:23;8.10;99.90
14359;DHT22;7263;49.418;11.064;2023-12-14T13:27:51;8.00;99.90
14359;DHT22;7263;49.418;11.064;2023-12-14T13:30:21;8.10;99.90
14359;DHT22;7263;49.418;11.064;2023-12-14T13:32:59;8.10;99.90
14359;DHT22;7263;49.418;11.064;2023-12-14T13:35:26;8.00;99.90
14359;DHT22;7263;49.418;11.064;2023-12-14T13:37:57;8.00;99.90
14359;DHT22;7263;49.418;11.064;2023-12-14T13:40:25;8.00;99.90
14359;DHT22;7263;49.418;11.064;2023-12-14T13:42:51;7.90;99.90
14359;DHT22;7263;49.418;11.064;2023-12-14T13:45:21;7.80;99.90
14359;DHT22;7263;49.418;11.064;2023-12-14T13:48:11;7.70;99.90
14359;DHT22;7263;49.418;11.064;2023-12-14T13:50:40;7.60;99.90
14359;DHT22;7263;49.418;11.064;2023-12-14T13:53:15;7.60;99.90
14359;DHT22;7263;49.418;11.064;2023-12-14T13:55:45;7.50;99.90
14359;DHT22;7263;49.418;11.064;2023-12-14T13:58:15;7.40;99.90
14359;DHT22;7263;49.418;11.064;2023-12-14T14:00:55;7.40;99.90
14359;DHT22;7263;49.418;11.064;2023-12-14T14:03:22;7.30;99.90
14359;DHT22;7263;49.418;11.064;2023-12-14T14:05:49;7.20;99.90
14359;DHT22;7263;49.418;11.064;2023-12-14T14:08:18;7.20;99.90
14359;DHT22;7263;49.418;11.064;2023-12-14T14:10:49;7.00;99.90
14359;DHT22;7263;49.418;11.064;2023-12-14T14:13:18;7.00;99.90
14359;DHT22;7263;49.418;11.064;2023-12-14T14:15:54;7.00;99.90
14359;DHT22;7263;49.418;11.064;2023-12-14T14:18:24;6.90;99.90
14359;DHT22;7263;49.418;11.064;2023-12-14T14:20:56;6.80;99.90
14359;DHT22;7263;49.418;11.064;2023-12-14T14:23:39;6.70;99.90
14359;DHT22;7263;49.418;11.064;2023-12-14T14:26:07;6.70;99.90
14359;DHT22;7263;49.418;11.064;2023-12-14T14:28:39;6.70;99.90
14359;DHT22;7263;49.418;11.064;2023-12-14T14:31:15;6.60;99.90
14359;DHT22;7263;49.418;11.064;2023-12-14T14:33:44;6.60;99.90
14359;DHT22;7263;49.418;11.064;2023-12-14T14:36:12;6.60;99.90
14359;DHT22;7263;49.418;11.064;2023-12-14T14:38:39;6.60;99.90
14359;DHT22;7263;49.418;11.064;2023-12-14T14:41:10;6.50;99.90
14359;DHT22;7263;49.418;11.064;2023-12-14T14:43:37;3.80;99.90
14359;DHT22;7263;49.418;11.064;2023-12-14T14:46:07;6.60;99.90
14359;DHT22;7263;49.418;11.064;2023-12-14T14:48:36;6.60;99.90
14359;DHT22;7263;49.418;11.064;2023-12-14T14:51:04;6.60;99.90
14359;DHT22;7263;49.418;11.064;2023-12-14T14:53:38;6.60;99.90
14359;DHT22;7263;49.418;11.064;2023-12-14T14:56:10;6.60;99.90
14359;DHT22;7263;49.418;11.064;2023-12-14T14:58:39;6.60;99.90
14359;DHT22;7263;49.418;11.064;2023-12-14T15:01:11;6.60;99.90
14359;DHT22;7263;49.418;11.064;2023-12-14T15:03:43;6.60;99.90
14359;DHT22;7263;49.418;11.064;2023-12-14T15:06:11;6.50;99.90
14359;DHT22;7263;49.418;11.064;2023-12-14T15:08:37;6.60;99.90
14359;DHT22;7263;49.418;11.064;2023-12-14T15:11:07;6.60;99.90
14359;DHT22;7263;49.418;11.064;2023-12-14T15:13:40;6.60;99.90
14359;DHT22;7263;49.418;11.064;2023-12-14T15:16:10;6.60;99.90
14359;DHT22;7263;49.418;11.064;2023-12-14T15:18:40;6.60;99.90
14359;DHT22;7263;49.418;11.064;2023-12-14T15:21:08;6.60;99.90
14359;DHT22;7263;49.418;11.064;2023-12-14T15:23:40;6.60;99.90
14359;DHT22;7263;49.418;11.064;2023-12-14T15:26:16;6.60;99.90
14359;DHT22;7263;49.418;11.064;2023-12-14T15:28:44;6.60;99.90
14359;DHT22;7263;49.418;11.064;2023-12-14T15:31:16;6.60;99.90
14359;DHT22;7263;49.418;11.064;2023-12-14T15:33:48;6.60;99.90
14359;DHT22;7263;49.418;11.064;2023-12-14T15:36:15;6.60;99.90
14359;DHT22;7263;49.418;11.064;2023-12-14T15:38:42;6.60;99.90
14359;DHT22;7263;49.418;11.064;2023-12-14T15:41:11;6.60;99.90
14359;DHT22;7263;49.418;11.064;2023-12-14T15:43:54;6.60;99.90
14359;DHT22;7263;49.418;11.064;2023-12-14T15:46:23;6.60;99.90
14359;DHT22;7263;49.418;11.064;2023-12-14T15:51:17;6.60;99.90
14359;DHT22;7263;49.418;11.064;2023-12-14T15:53:44;6.60;99.90
14359;DHT22;7263;49.418;11.064;2023-12-14T15:56:11;2.90;99.90
14359;DHT22;7263;49.418;11.064;2023-12-14T15:58:43;6.60;99.90
14359;DHT22;7263;49.418;11.064;2023-12-14T16:01:12;6.60;99.90
14359;DHT22;7263;49.418;11.064;2023-12-14T16:03:43;6.60;99.90
14359;DHT22;7263;49.418;11.064;2023-12-14T16:06:20;6.60;99.90
14359;DHT22;7263;49.418;11.064;2023-12-14T16:13:43;6.60;99.90
14359;DHT22;7263;49.418;11.064;2023-12-14T16:16:11;6.60;99.90
14359;DHT22;7263;49.418;11.064;2023-12-14T16:18:41;6.60;99.90
14359;DHT22;7263;49.418;11.064;2023-12-14T16:21:09;6.60;99.90
14359;DHT22;7263;49.418;11.064;2023-12-14T16:23:39;6.60;99.90
14359;DHT22;7263;49.418;11.064;2023-12-14T16:26:06;6.50;99.90
14359;DHT22;7263;49.418;11.064;2023-12-14T16:28:41;6.50;99.90
14359;DHT22;7263;49.418;11.064;2023-12-14T16:31:11;6.50;99.90
14359;DHT22;7263;49.418;11.064;2023-12-14T16:33:38;6.50;99.90
14359;DHT22;7263;49.418;11.064;2023-12-14T16:36:19;6.50;99.90
14359;DHT22;7263;49.418;11.064;2023-12-14T16:38:46;6.60;99.90
14359;DHT22;7263;49.418;11.064;2023-12-14T16:41:19;6.50;99.90
14359;DHT22;7263;49.418;11.064;2023-12-14T16:46:17;6.50;99.90
14359;DHT22;7263;49.418;11.064;2023-12-14T16:48:47;6.50;99.90
14359;DHT22;7263;49.418;11.064;2023-12-14T16:51:17;6.50;99.90
14359;DHT22;7263;49.418;11.064;2023-12-14T16:53:45;6.40;99.90
14359;DHT22;7263;49.418;11.064;2023-12-14T16:56:27;6.40;99.90
14359;DHT22;7263;49.418;11.064;2023-12-14T17:01:38;6.40;99.90
14359;DHT22;7263;49.418;11.064;2023-12-14T17:04:12;6.40;99.90
14359;DHT22;7263;49.418;11.064;2023-12-14T17:06:39;6.40;99.90
14359;DHT22;7263;49.418;11.064;2023-12-14T17:09:28;6.40;99.90
14359;DHT22;7263;49.418;11.064;2023-12-14T17:12:01;6.40;99.90
14359;DHT22;7263;49.418;11.064;2023-12-14T17:16:59;6.30;99.90
14359;DHT22;7263;49.418;11.064;2023-12-14T17:21:56;6.30;99.90
14359;DHT22;7263;49.418;11.064;2023-12-14T17:26:52;6.30;99.90
14359;DHT22;7263;49.418;11.064;2023-12-14T17:31:50;6.00;99.90
14359;DHT22;7263;49.418;11.064;2023-12-14T17:34:18;6.30;99.90
14359;DHT22;7263;49.418;11.064;2023-12-14T17:36:48;6.40;99.90
14359;DHT22;7263;49.418;11.064;2023-12-14T17:41:46;6.30;99.90
14359;DHT22;7263;49.418;11.064;2023-12-14T17:44:15;6.30;99.90
14359;DHT22;7263;49.418;11.064;2023-12-14T17:46:45;6.30;99.90
14359;DHT22;7263;49.418;11.064;2023-12-14T17:51:52;6.30;99.90
14359;DHT22;7263;49.418;11.064;2023-12-14T17:54:23;6.30;99.90
14359;DHT22;7263;49.418;11.064;2023-12-14T17:56:50;6.30;99.90
14359;DHT22;7263;49.418;11.064;2023-12-14T18:04:13;6.20;99.90
14359;DHT22;7263;49.418;11.064;2023-12-14T18:06:44;6.20;99.90
14359;DHT22;7263;49.418;11.064;2023-12-14T18:09:13;6.20;99.90
14359;DHT22;7263;49.418;11.064;2023-12-14T18:11:43;6.10;99.90
14359;DHT22;7263;49.418;11.064;2023-12-14T18:14:10;6.20;99.90
14359;DHT22;7263;49.418;11.064;2023-12-14T18:16:39;6.10;99.90
14359;DHT22;7263;49.418;11.064;2023-12-14T18:19:14;6.10;99.90
14359;DHT22;7263;49.418;11.064;2023-12-14T18:21:47;6.10;99.90
14359;DHT22;7263;49.418;11.064;2023-12-14T18:24:14;6.10;99.90
14359;DHT22;7263;49.418;11.064;2023-12-14T18:29:11;6.00;99.90
14359;DHT22;7263;49.418;11.064;2023-12-14T18:34:08;5.90;99.90
14359;DHT22;7263;49.418;11.064;2023-12-14T18:36:45;5.90;99.90
14359;DHT22;7263;49.418;11.064;2023-12-14T18:39:17;5.90;99.90
14359;DHT22;7263;49.418;11.064;2023-12-14T18:41:46;5.80;99.90
14359;DHT22;7263;49.418;11.064;2023-12-14T18:44:13;5.80;99.90
14359;DHT22;7263;49.418;11.064;2023-12-14T18:46:44;5.80;99.90
14359;DHT22;7263;49.418;11.064;2023-12-14T18:51:50;5.60;99.90
14359;DHT22;7263;49.418;11.064;2023-12-14T18:54:37;5.70;99.90
14359;DHT22;7263;49.418;11.064;2023-12-14T18:57:04;5.70;99.90
14359;DHT22;7263;49.418;11.064;2023-12-14T18:59:34;5.70;99.90
14359;DHT22;7263;49.418;11.064;2023-12-14T19:02:00;5.60;99.90
14359;DHT22;7263;49.418;11.064;2023-12-14T19:04:39;5.60;99.90
14359;DHT22;7263;49.418;11.064;2023-12-14T19:07:11;5.60;99.90
14359;DHT22;7263;49.418;11.064;2023-12-14T19:09:40;5.60;99.90
14359;DHT22;7263;49.418;11.064;2023-12-14T19:14:52;5.60;99.90
14359;DHT22;7263;49.418;11.064;2023-12-14T19:17:27;5.60;99.90
14359;DHT22;7263;49.418;11.064;2023-12-14T19:22:27;5.50;99.90
14359;DHT22;7263;49.418;11.064;2023-12-14T19:27:27;5.40;99.90
14359;DHT22;7263;49.418;11.064;2023-12-14T19:32:33;5.40;99.90
14359;DHT22;7263;49.418;11.064;2023-12-14T19:35:03;5.40;99.90
14359;DHT22;7263;49.418;11.064;2023-12-14T19:37:34;5.40;99.90
14359;DHT22;7263;49.418;11.064;2023-12-14T19:40:12;5.30;99.90
14359;DHT22;7263;49.418;11.064;2023-12-14T19:42:50;5.30;99.90
14359;DHT22;7263;49.418;11.064;2023-12-14T19:45:19;5.30;99.90
14359;DHT22;7263;49.418;11.064;2023-12-14T19:47:50;5.30;99.90
14359;DHT22;7263;49.418;11.064;2023-12-14T19:50:22;5.30;99.90
14359;DHT22;7263;49.418;11.064;2023-12-14T19:52:50;5.30;99.90
14359;DHT22;7263;49.418;11.064;2023-12-14T19:55:17;6.60;99.90
14359;DHT22;7263;49.418;11.064;2023-12-14T19:57:46;5.20;99.90
14359;DHT22;7263;49.418;11.064;2023-12-14T20:02:44;5.10;99.90
14359;DHT22;7263;49.418;11.064;2023-12-14T20:05:18;5.20;99.90
14359;DHT22;7263;49.418;11.064;2023-12-14T20:07:51;5.10;99.90
14359;DHT22;7263;49.418;11.064;2023-12-14T20:10:18;5.10;99.90
14359;DHT22;7263;49.418;11.064;2023-12-14T20:12:45;5.10;99.90
14359;DHT22;7263;49.418;11.064;2023-12-14T20:15:16;5.10;99.90
14359;DHT22;7263;49.418;11.064;2023-12-14T20:17:47;5.10;99.90
14359;DHT22;7263;49.418;11.064;2023-12-14T20:20:16;5.10;99.90
14359;DHT22;7263;49.418;11.064;2023-12-14T20:22:46;5.00;99.90
14359;DHT22;7263;49.418;11.064;2023-12-14T20:25:19;5.10;99.90
14359;DHT22;7263;49.418;11.064;2023-12-14T20:27:49;5.10;99.90
14359;DHT22;7263;49.418;11.064;2023-12-14T20:30:20;5.00;99.90
14359;DHT22;7263;49.418;11.064;2023-12-14T20:32:47;5.10;99.90
14359;DHT22;7263;49.418;11.064;2023-12-14T20:35:22;5.10;99.90
14359;DHT22;7263;49.418;11.064;2023-12-14T20:37:55;5.20;99.90
14359;DHT22;7263;49.418;11.064;2023-12-14T20:40:29;5.00;99.90
14359;DHT22;7263;49.418;11.064;2023-12-14T20:42:59;5.00;99.90
14359;DHT22;7263;49.418;11.064;2023-12-14T20:45:26;5.10;99.90
14359;DHT22;7263;49.418;11.064;2023-12-14T20:48:01;5.10;99.90
14359;DHT22;7263;49.418;11.064;2023-12-14T20:50:28;5.00;99.90
14359;DHT22;7263;49.418;11.064;2023-12-14T20:53:05;5.00;99.90
14359;DHT22;7263;49.418;11.064;2023-12-14T20:55:38;4.90;99.90
14359;DHT22;7263;49.418;11.064;2023-12-14T20:58:05;4.90;99.90
14359;DHT22;7263;49.418;11.064;2023-12-14T21:00:33;4.90;99.90
14359;DHT22;7263;49.418;11.064;2023-12-14T21:03:05;4.90;99.90
14359;DHT22;7263;49.418;11.064;2023-12-14T21:05:34;4.90;99.90
14359;DHT22;7263;49.418;11.064;2023-12-14T21:08:04;4.90;99.90
14359;DHT22;7263;49.418;11.064;2023-12-14T21:10:33;6.10;99.90
14359;DHT22;7263;49.418;11.064;2023-12-14T21:13:14;4.90;99.90
14359;DHT22;7263;49.418;11.064;2023-12-14T21:15:48;4.90;99.90
14359;DHT22;7263;49.418;11.064;2023-12-14T21:18:15;4.90;99.90
14359;DHT22;7263;49.418;11.064;2023-12-14T21:20:46;4.90;99.90
14359;DHT22;7263;49.418;11.064;2023-12-14T21:23:15;4.80;99.90
14359;DHT22;7263;49.418;11.064;2023-12-14T21:25:58;4.80;99.90
14359;DHT22;7263;49.418;11.064;2023-12-14T21:28:38;4.90;99.90
14359;DHT22;7263;49.418;11.064;2023-12-14T21:31:04;4.80;99.90
14359;DHT22;7263;49.418;11.064;2023-12-14T21:33:35;4.80;99.90
14359;DHT22;7263;49.418;11.064;2023-12-14T21:36:06;4.80;99.90